Time;durP1;ratioP1;P1;durP2;ratioP2;P2;SDS_P1;SDS_P2;PMS_P1;PMS_P2;Temp;Humidity;BMP_temperature;BMP_pressure;BME280_temperature;BME280_humidity;BME280_pressure;Samples;Min_cycle;Max_cycle;Signal;HPM_P1;HPM_P2
2021/12/03 00:01:21;;;;;;;1.87;0.93;;;;;;;;;;5024254;28;21955;-76
2021/12/03 00:03:48;;;;;;;2.07;1.07;;;;;;;;;;5024986;28;25143;-76
2021/12/03 00:06:14;;;;;;;5.27;1.20;;;;;;;;;;5023050;28;20448;-77
2021/12/03 00:08:40;;;;;;;1.63;0.90;;;;;;;;;;5021652;28;25156;-76
2021/12/03 00:11:05;;;;;;;1.20;0.80;;;;;;;;;;5018949;28;25131;-76
2021/12/03 00:13:32;;;;;;;2.80;1.00;;;;;;;;;;5017832;28;25162;-77
2021/12/03 00:16:01;;;;;;;3.63;1.30;;;;;;;;;;5019935;28;25130;-78
2021/12/03 00:18:27;;;;;;;2.70;1.30;;;;;;;;;;5022152;28;25109;-78
2021/12/03 00:20:52;;;;;;;4.23;1.77;;;;;;;;;;5021858;28;25099;-77
2021/12/03 00:23:21;;;;;;;2.40;1.67;;;;;;;;;;5021961;28;25084;-77
2021/12/03 00:25:46;;;;;;;3.83;1.67;;;;;;;;;;5021424;28;21220;-75
2021/12/03 00:28:12;;;;;;;3.63;1.50;;;;;;;;;;5020287;28;25138;-78
2021/12/03 00:30:37;;;;;;;2.50;1.57;;;;;;;;;;5023208;28;25073;-75
2021/12/03 00:33:04;;;;;;;2.00;1.40;;;;;;;;;;5024651;28;25114;-74
2021/12/03 00:35:29;;;;;;;7.70;1.97;;;;;;;;;;5022746;28;25111;-77
2021/12/03 00:37:54;;;;;;;6.20;1.87;;;;;;;;;;5024360;28;25138;-77
2021/12/03 00:40:23;;;;;;;2.10;1.27;;;;;;;;;;5017873;28;20194;-76
2021/12/03 00:42:48;;;;;;;3.50;0.90;;;;;;;;;;5021291;28;25165;-76
2021/12/03 00:45:14;;;;;;;1.77;1.07;;;;;;;;;;5024185;28;25110;-74
2021/12/03 00:47:40;;;;;;;1.73;1.23;;;;;;;;;;5018435;28;25112;-75
2021/12/03 00:50:07;;;;;;;2.37;1.10;;;;;;;;;;5017396;28;25133;-75
2021/12/03 00:52:32;;;;;;;1.97;0.97;;;;;;;;;;5019731;28;25105;-75
2021/12/03 00:54:58;;;;;;;3.07;1.13;;;;;;;;;;5020553;28;20477;-75
2021/12/03 00:57:23;;;;;;;3.60;1.03;;;;;;;;;;5023440;28;20195;-76
2021/12/03 00:59:58;;;;;;;1.33;1.20;;;;;;;;;;5020562;28;20190;-76
2021/12/03 01:02:23;;;;;;;3.10;1.10;;;;;;;;;;5017158;28;25036;-75
2021/12/03 01:04:48;;;;;;;2.33;1.23;;;;;;;;;;5018077;28;20930;-75
2021/12/03 01:07:14;;;;;;;1.50;1.40;;;;;;;;;;5014911;28;20616;-74
2021/12/03 01:09:40;;;;;;;4.63;1.17;;;;;;;;;;5025200;28;20599;-75
2021/12/03 01:12:05;;;;;;;3.07;1.40;;;;;;;;;;5021656;28;25201;-76
2021/12/03 01:14:31;;;;;;;2.17;1.33;;;;;;;;;;5022096;28;27207;-76
2021/12/03 01:16:56;;;;;;;3.97;1.50;;;;;;;;;;5016784;28;20698;-76
2021/12/03 01:19:22;;;;;;;4.60;1.23;;;;;;;;;;5016953;28;25081;-75
2021/12/03 01:21:47;;;;;;;2.63;1.30;;;;;;;;;;5017662;28;25049;-75
2021/12/03 01:24:12;;;;;;;3.07;1.10;;;;;;;;;;5020137;28;20215;-76
2021/12/03 01:26:39;;;;;;;7.47;1.80;;;;;;;;;;5020315;28;25144;-75
2021/12/03 01:29:05;;;;;;;2.23;1.20;;;;;;;;;;5017650;28;25113;-75
2021/12/03 01:31:31;;;;;;;6.73;1.70;;;;;;;;;;5019044;28;25094;-76
2021/12/03 01:33:56;;;;;;;4.00;1.70;;;;;;;;;;5021290;28;25064;-78
2021/12/03 01:36:21;;;;;;;6.03;1.43;;;;;;;;;;5021264;28;25113;-79
2021/12/03 01:38:46;;;;;;;1.93;1.40;;;;;;;;;;5026127;28;25112;-76
2021/12/03 01:41:12;;;;;;;4.10;1.30;;;;;;;;;;5027482;28;25070;-75
2021/12/03 01:43:40;;;;;;;4.87;1.53;;;;;;;;;;5029609;28;20232;-76
2021/12/03 01:46:08;;;;;;;3.67;1.80;;;;;;;;;;5028964;28;25065;-76
2021/12/03 01:48:36;;;;;;;8.30;1.60;;;;;;;;;;5027999;28;25159;-77
2021/12/03 01:51:02;;;;;;;3.53;1.70;;;;;;;;;;5023136;28;25171;-82
2021/12/03 01:53:30;;;;;;;2.83;1.50;;;;;;;;;;5024544;28;20509;-82
2021/12/03 01:55:58;;;;;;;2.97;1.20;;;;;;;;;;5043569;28;20602;-79
2021/12/03 01:58:23;;;;;;;4.00;1.10;;;;;;;;;;5029428;28;25103;-84
2021/12/03 02:00:53;;;;;;;2.50;1.03;;;;;;;;;;5026993;28;25103;-79
2021/12/03 02:03:20;;;;;;;2.50;0.90;;;;;;;;;;5028013;28;20287;-78
2021/12/03 02:05:45;;;;;;;2.30;1.00;;;;;;;;;;5022036;28;25136;-77
2021/12/03 02:08:11;;;;;;;2.97;1.00;;;;;;;;;;5025461;28;22303;-81
2021/12/03 02:10:37;;;;;;;2.60;0.90;;;;;;;;;;5030859;28;25112;-76
2021/12/03 02:13:02;;;;;;;9.17;0.90;;;;;;;;;;5025706;28;20244;-78
2021/12/03 02:15:28;;;;;;;3.10;1.20;;;;;;;;;;5025804;28;25129;-77
2021/12/03 02:17:53;;;;;;;3.17;0.67;;;;;;;;;;5025894;28;25076;-77
2021/12/03 02:20:19;;;;;;;2.53;0.70;;;;;;;;;;5022385;28;20190;-77
2021/12/03 02:22:45;;;;;;;4.03;0.90;;;;;;;;;;5024407;28;25065;-76
2021/12/03 02:25:15;;;;;;;2.10;0.90;;;;;;;;;;5021425;28;20690;-78
2021/12/03 02:27:41;;;;;;;1.57;0.70;;;;;;;;;;5028124;28;25109;-77
2021/12/03 02:30:10;;;;;;;2.50;0.80;;;;;;;;;;5030880;28;25159;-76
2021/12/03 02:32:35;;;;;;;1.57;0.60;;;;;;;;;;5030532;28;25090;-76
2021/12/03 02:35:01;;;;;;;1.23;0.60;;;;;;;;;;5026602;28;25137;-79
2021/12/03 02:37:26;;;;;;;0.83;0.60;;;;;;;;;;5026088;28;20190;-77
2021/12/03 02:39:52;;;;;;;3.17;0.70;;;;;;;;;;5026944;28;20218;-77
2021/12/03 02:42:17;;;;;;;2.60;0.77;;;;;;;;;;5024514;28;25106;-77
2021/12/03 02:44:44;;;;;;;2.60;0.90;;;;;;;;;;5023859;28;25056;-76
2021/12/03 02:47:10;;;;;;;1.73;0.90;;;;;;;;;;5028380;28;20202;-77
2021/12/03 02:49:39;;;;;;;2.33;0.80;;;;;;;;;;5028976;28;21191;-75
2021/12/03 02:52:04;;;;;;;4.17;0.93;;;;;;;;;;5028112;28;25079;-77
2021/12/03 02:54:30;;;;;;;3.40;1.20;;;;;;;;;;5025592;28;25134;-75
2021/12/03 02:56:55;;;;;;;3.00;0.90;;;;;;;;;;5025062;28;25067;-74
2021/12/03 02:59:20;;;;;;;3.50;1.20;;;;;;;;;;5044122;28;20191;-73
2021/12/03 03:01:46;;;;;;;4.70;1.67;;;;;;;;;;5027833;28;25076;-73
2021/12/03 03:04:11;;;;;;;4.00;1.33;;;;;;;;;;5024365;28;25081;-75
2021/12/03 03:06:36;;;;;;;2.60;1.20;;;;;;;;;;5024723;28;25082;-74
2021/12/03 03:09:07;;;;;;;5.17;1.33;;;;;;;;;;5028640;28;25081;-74
2021/12/03 03:11:33;;;;;;;5.93;1.10;;;;;;;;;;5027530;28;25067;-74
2021/12/03 03:13:58;;;;;;;2.33;1.20;;;;;;;;;;5027621;28;25117;-73
2021/12/03 03:16:23;;;;;;;3.37;1.00;;;;;;;;;;5020398;28;21258;-74
2021/12/03 03:18:49;;;;;;;3.13;1.33;;;;;;;;;;5023339;28;25072;-73
2021/12/03 03:21:14;;;;;;;3.53;1.30;;;;;;;;;;5023834;28;25104;-75
2021/12/03 03:23:39;;;;;;;3.23;0.90;;;;;;;;;;5021470;28;20253;-73
2021/12/03 03:26:05;;;;;;;6.33;2.13;;;;;;;;;;5020654;28;20201;-73
2021/12/03 03:28:30;;;;;;;4.60;2.27;;;;;;;;;;5032487;28;25064;-73
2021/12/03 03:30:57;;;;;;;3.33;1.70;;;;;;;;;;5025120;28;25134;-74
2021/12/03 03:33:22;;;;;;;3.40;1.00;;;;;;;;;;5026338;28;25082;-74
2021/12/03 03:35:48;;;;;;;6.70;1.97;;;;;;;;;;5019530;28;25118;-73
2021/12/03 03:38:15;;;;;;;4.20;1.40;;;;;;;;;;5020145;28;25058;-75
2021/12/03 03:40:40;;;;;;;3.93;1.77;;;;;;;;;;5025022;28;20594;-73
2021/12/03 03:43:06;;;;;;;4.40;1.90;;;;;;;;;;5025034;28;20445;-73
2021/12/03 03:45:32;;;;;;;3.67;1.53;;;;;;;;;;5023904;28;20192;-72
2021/12/03 03:47:57;;;;;;;3.33;1.13;;;;;;;;;;5025565;28;20182;-74
2021/12/03 03:50:23;;;;;;;4.47;1.60;;;;;;;;;;5027468;28;20442;-73
2021/12/03 03:52:50;;;;;;;4.83;1.47;;;;;;;;;;5028715;28;20267;-74
2021/12/03 03:55:16;;;;;;;2.40;1.17;;;;;;;;;;5029504;28;20282;-74
2021/12/03 03:57:41;;;;;;;4.00;1.53;;;;;;;;;;5023491;28;20472;-75
2021/12/03 04:00:08;;;;;;;2.73;1.63;;;;;;;;;;5020879;28;20458;-74
2021/12/03 04:02:33;;;;;;;3.33;1.50;;;;;;;;;;5014439;28;20183;-73
2021/12/03 04:04:59;;;;;;;4.30;2.03;;;;;;;;;;5017485;28;20466;-73
2021/12/03 04:07:24;;;;;;;5.10;2.23;;;;;;;;;;5026905;28;20659;-73
2021/12/03 04:09:49;;;;;;;7.50;1.80;;;;;;;;;;5018986;28;20299;-73
2021/12/03 04:12:15;;;;;;;2.50;1.57;;;;;;;;;;5022581;28;20245;-74
2021/12/03 04:14:40;;;;;;;4.60;2.03;;;;;;;;;;5016022;28;20240;-73
2021/12/03 04:17:05;;;;;;;4.70;2.50;;;;;;;;;;5024985;28;20187;-75
2021/12/03 04:19:30;;;;;;;3.47;2.20;;;;;;;;;;5024640;28;22253;-74
2021/12/03 04:21:56;;;;;;;3.77;2.43;;;;;;;;;;5023127;28;20191;-74
2021/12/03 04:24:22;;;;;;;5.20;3.10;;;;;;;;;;5021734;28;20723;-74
2021/12/03 04:26:47;;;;;;;5.70;3.13;;;;;;;;;;5019421;28;20179;-73
2021/12/03 04:29:12;;;;;;;4.73;3.20;;;;;;;;;;5023498;28;20960;-75
2021/12/03 04:31:37;;;;;;;4.70;3.20;;;;;;;;;;5020904;28;20554;-75
2021/12/03 04:34:03;;;;;;;6.50;3.70;;;;;;;;;;5023143;28;20290;-75
2021/12/03 04:36:28;;;;;;;7.57;4.13;;;;;;;;;;5021677;28;20267;-75
2021/12/03 04:38:53;;;;;;;3.87;3.43;;;;;;;;;;5022806;28;20211;-74
2021/12/03 04:41:19;;;;;;;8.70;4.10;;;;;;;;;;5023487;28;20202;-74
2021/12/03 04:43:44;;;;;;;5.30;4.17;;;;;;;;;;5024708;28;21620;-76
2021/12/03 04:46:09;;;;;;;7.70;4.73;;;;;;;;;;5019604;28;20192;-75
2021/12/03 04:48:35;;;;;;;6.80;5.40;;;;;;;;;;5020445;28;20202;-76
2021/12/03 04:51:00;;;;;;;11.33;5.30;;;;;;;;;;5026886;28;20303;-76
2021/12/03 04:53:26;;;;;;;10.30;6.00;;;;;;;;;;5022429;28;20587;-75
2021/12/03 04:55:51;;;;;;;8.50;6.13;;;;;;;;;;5017377;28;26099;-76
2021/12/03 04:58:17;;;;;;;7.90;6.60;;;;;;;;;;5017157;28;21100;-74
2021/12/03 05:00:44;;;;;;;8.33;7.43;;;;;;;;;;5020774;28;20183;-75
2021/12/03 05:03:10;;;;;;;9.53;7.73;;;;;;;;;;5023430;28;20199;-74
2021/12/03 05:05:36;;;;;;;7.67;6.80;;;;;;;;;;5022661;28;20782;-74
2021/12/03 05:08:07;;;;;;;9.03;7.53;;;;;;;;;;5025492;28;20227;-75
2021/12/03 05:10:33;;;;;;;11.90;7.57;;;;;;;;;;5023600;28;20454;-74
2021/12/03 05:13:00;;;;;;;9.60;7.13;;;;;;;;;;5030163;28;20496;-75
2021/12/03 05:15:28;;;;;;;11.07;7.93;;;;;;;;;;5022266;28;20564;-74
2021/12/03 05:17:54;;;;;;;13.03;8.43;;;;;;;;;;5021677;28;20458;-74
2021/12/03 05:20:19;;;;;;;10.90;7.80;;;;;;;;;;5029731;28;20985;-75
2021/12/03 05:22:45;;;;;;;8.83;7.53;;;;;;;;;;5023582;28;20242;-72
2021/12/03 05:25:10;;;;;;;16.63;9.23;;;;;;;;;;5020448;28;20204;-74
2021/12/03 05:27:35;;;;;;;11.93;8.53;;;;;;;;;;5024429;28;20183;-74
2021/12/03 05:30:01;;;;;;;9.77;7.53;;;;;;;;;;5029336;28;20192;-76
2021/12/03 05:32:26;;;;;;;9.07;7.67;;;;;;;;;;5021594;28;20193;-75
2021/12/03 05:34:51;;;;;;;9.60;7.80;;;;;;;;;;5022342;28;20209;-74
2021/12/03 05:37:16;;;;;;;11.57;7.53;;;;;;;;;;5024431;28;20778;-74
2021/12/03 05:39:42;;;;;;;13.60;8.30;;;;;;;;;;5026349;28;20587;-78
2021/12/03 05:42:07;;;;;;;10.50;8.27;;;;;;;;;;5023530;28;20643;-74
2021/12/03 05:44:32;;;;;;;11.03;7.47;;;;;;;;;;5026241;28;20756;-78
2021/12/03 05:46:58;;;;;;;12.83;8.47;;;;;;;;;;5025693;28;20269;-77
2021/12/03 05:49:24;;;;;;;10.73;7.27;;;;;;;;;;5024600;28;20214;-75
2021/12/03 05:51:49;;;;;;;10.00;8.03;;;;;;;;;;5024351;28;20191;-75
2021/12/03 05:54:15;;;;;;;14.53;8.07;;;;;;;;;;5032674;28;20557;-76
2021/12/03 05:56:40;;;;;;;9.50;6.93;;;;;;;;;;5021469;28;20208;-76
2021/12/03 05:59:05;;;;;;;11.17;7.80;;;;;;;;;;5026987;28;20199;-76
2021/12/03 06:01:31;;;;;;;10.93;7.13;;;;;;;;;;5027794;28;20186;-76
2021/12/03 06:03:56;;;;;;;8.03;6.30;;;;;;;;;;5025742;28;20656;-74
2021/12/03 06:06:21;;;;;;;8.13;7.20;;;;;;;;;;5028957;28;20188;-79
2021/12/03 06:08:46;;;;;;;9.90;6.60;;;;;;;;;;5030539;28;20287;-74
2021/12/03 06:11:12;;;;;;;12.17;7.60;;;;;;;;;;5026283;28;20885;-73
2021/12/03 06:13:40;;;;;;;8.60;6.47;;;;;;;;;;5019346;28;20199;-76
2021/12/03 06:16:06;;;;;;;11.63;7.70;;;;;;;;;;5017427;28;20602;-76
2021/12/03 06:18:32;;;;;;;10.80;7.37;;;;;;;;;;5010105;28;20425;-76
2021/12/03 06:20:57;;;;;;;10.10;7.60;;;;;;;;;;5018090;28;20446;-78
2021/12/03 06:23:22;;;;;;;9.77;7.63;;;;;;;;;;5015177;28;20205;-73
2021/12/03 06:25:47;;;;;;;14.60;7.80;;;;;;;;;;5023148;28;20180;-79
2021/12/03 06:28:13;;;;;;;11.33;6.73;;;;;;;;;;5022916;28;20644;-78
2021/12/03 06:30:38;;;;;;;11.70;8.47;;;;;;;;;;5023732;28;20228;-77
2021/12/03 06:33:05;;;;;;;14.60;7.63;;;;;;;;;;5022844;28;20800;-78
2021/12/03 06:35:30;;;;;;;14.83;8.40;;;;;;;;;;5017688;28;20220;-76
2021/12/03 06:37:55;;;;;;;13.20;8.23;;;;;;;;;;5026863;28;20552;-80
2021/12/03 06:40:22;;;;;;;8.87;7.03;;;;;;;;;;5024358;28;20298;-75
2021/12/03 06:42:48;;;;;;;7.73;6.90;;;;;;;;;;5019585;28;20222;-76
2021/12/03 06:45:14;;;;;;;9.07;7.10;;;;;;;;;;5015277;28;20980;-78
2021/12/03 06:47:40;;;;;;;8.40;7.60;;;;;;;;;;5022713;28;20555;-76
2021/12/03 06:50:07;;;;;;;10.23;7.03;;;;;;;;;;5023295;28;20438;-75
2021/12/03 06:52:33;;;;;;;10.50;7.17;;;;;;;;;;5029104;28;20896;-75
2021/12/03 06:55:02;;;;;;;10.63;7.13;;;;;;;;;;5015587;28;20470;-75
2021/12/03 06:57:28;;;;;;;8.90;6.70;;;;;;;;;;5036211;28;20446;-74
2021/12/03 06:59:53;;;;;;;9.20;7.00;;;;;;;;;;5021766;28;20457;-79
2021/12/03 07:02:18;;;;;;;8.97;6.70;;;;;;;;;;5023401;28;20176;-75
2021/12/03 07:04:44;;;;;;;10.37;6.73;;;;;;;;;;5024710;28;20766;-78
2021/12/03 07:07:09;;;;;;;8.80;6.67;;;;;;;;;;5020169;28;20320;-77
2021/12/03 07:09:35;;;;;;;8.57;6.20;;;;;;;;;;5027863;28;20185;-71
2021/12/03 07:12:00;;;;;;;9.40;7.53;;;;;;;;;;5019927;28;20196;-73
2021/12/03 07:14:25;;;;;;;8.27;6.10;;;;;;;;;;5022881;28;20253;-73
2021/12/03 07:16:51;;;;;;;9.23;6.30;;;;;;;;;;5012618;28;20802;-72
2021/12/03 07:19:16;;;;;;;7.03;6.10;;;;;;;;;;5020323;28;20183;-74
2021/12/03 07:21:41;;;;;;;9.60;7.47;;;;;;;;;;5020722;28;20551;-74
2021/12/03 07:24:07;;;;;;;7.60;6.20;;;;;;;;;;5021304;28;20336;-69
2021/12/03 07:26:32;;;;;;;9.23;7.07;;;;;;;;;;5033877;28;20916;-74
2021/12/03 07:28:57;;;;;;;11.33;6.70;;;;;;;;;;5026403;28;20180;-73
2021/12/03 07:31:23;;;;;;;7.67;5.80;;;;;;;;;;5026356;28;20331;-72
2021/12/03 07:33:48;;;;;;;12.47;6.67;;;;;;;;;;5030289;28;20658;-72
2021/12/03 07:36:14;;;;;;;9.07;5.70;;;;;;;;;;5021755;28;20180;-72
2021/12/03 07:38:39;;;;;;;8.83;6.27;;;;;;;;;;5027476;28;20177;-72
2021/12/03 07:41:04;;;;;;;9.40;6.13;;;;;;;;;;5022078;28;20210;-72
2021/12/03 07:43:30;;;;;;;8.60;6.20;;;;;;;;;;5025548;28;20204;-71
2021/12/03 07:45:55;;;;;;;13.67;6.20;;;;;;;;;;5010407;28;20279;-73
2021/12/03 07:48:22;;;;;;;7.63;5.53;;;;;;;;;;5018762;28;20182;-73
2021/12/03 07:50:48;;;;;;;6.90;5.40;;;;;;;;;;5016470;28;20187;-73
2021/12/03 07:53:17;;;;;;;10.50;7.00;;;;;;;;;;5021620;28;20942;-74
2021/12/03 07:55:44;;;;;;;11.13;6.07;;;;;;;;;;5010434;28;20466;-73
2021/12/03 07:58:09;;;;;;;9.47;5.87;;;;;;;;;;5018375;28;20553;-73
2021/12/03 08:00:35;;;;;;;7.73;5.50;;;;;;;;;;5017858;28;20910;-73
2021/12/03 08:03:00;;;;;;;7.97;5.83;;;;;;;;;;5024700;28;20176;-70
2021/12/03 08:05:25;;;;;;;8.50;6.17;;;;;;;;;;5021186;28;20210;-74
2021/12/03 08:07:51;;;;;;;7.93;5.90;;;;;;;;;;5011595;28;20224;-72
2021/12/03 08:10:16;;;;;;;9.83;6.00;;;;;;;;;;5010387;28;21285;-72
2021/12/03 08:12:43;;;;;;;7.23;5.80;;;;;;;;;;5020454;28;20195;-76
2021/12/03 08:15:08;;;;;;;8.77;5.63;;;;;;;;;;5013031;28;20211;-74
2021/12/03 08:17:33;;;;;;;9.90;6.50;;;;;;;;;;5013969;28;20442;-79
2021/12/03 08:19:59;;;;;;;8.13;6.43;;;;;;;;;;5019324;28;20213;-80
2021/12/03 08:22:24;;;;;;;10.53;7.23;;;;;;;;;;5019772;28;20180;-71
2021/12/03 08:24:49;;;;;;;9.40;6.80;;;;;;;;;;5024094;28;20207;-75
2021/12/03 08:27:14;;;;;;;8.13;5.93;;;;;;;;;;5022239;28;20218;-77
2021/12/03 08:29:40;;;;;;;7.10;6.03;;;;;;;;;;5012567;28;20188;-78
2021/12/03 08:32:05;;;;;;;10.20;6.50;;;;;;;;;;5021987;28;20192;-74
2021/12/03 08:34:31;;;;;;;12.30;6.60;;;;;;;;;;5026780;28;20206;-81
2021/12/03 08:36:56;;;;;;;10.57;7.00;;;;;;;;;;5021250;28;20590;-74
2021/12/03 08:39:21;;;;;;;10.03;7.37;;;;;;;;;;5023521;28;20177;-71
2021/12/03 08:41:47;;;;;;;8.67;6.30;;;;;;;;;;5020413;28;20199;-74
2021/12/03 08:44:12;;;;;;;8.73;6.63;;;;;;;;;;5032640;28;20204;-75
2021/12/03 08:46:38;;;;;;;11.80;7.60;;;;;;;;;;5017775;28;20192;-78
2021/12/03 08:49:11;;;;;;;13.57;6.90;;;;;;;;;;5023398;28;20295;-79
2021/12/03 08:56:46;;;;;;;9.53;7.37;;;;;;;;;;5016218;28;20555;-77
2021/12/03 08:59:15;;;;;;;8.03;7.10;;;;;;;;;;5031586;28;20437;-71
2021/12/03 09:01:40;;;;;;;10.00;6.50;;;;;;;;;;5013069;28;20183;-73
2021/12/03 09:04:06;;;;;;;9.43;7.03;;;;;;;;;;5017577;28;20473;-73
2021/12/03 09:06:32;;;;;;;15.23;7.60;;;;;;;;;;5020449;28;20563;-71
2021/12/03 09:08:57;;;;;;;9.93;6.83;;;;;;;;;;5019255;28;20505;-74
2021/12/03 09:11:24;;;;;;;11.87;7.73;;;;;;;;;;5017507;28;20278;-74
2021/12/03 09:13:50;;;;;;;11.77;8.53;;;;;;;;;;5023230;28;20207;-72
2021/12/03 09:16:18;;;;;;;10.40;7.73;;;;;;;;;;5013067;28;20439;-71
2021/12/03 09:18:45;;;;;;;12.23;8.20;;;;;;;;;;5020690;28;20462;-74
2021/12/03 09:21:23;;;;;;;10.07;8.20;;;;;;;;;;5024758;28;20515;-75
2021/12/03 09:26:30;;;;;;;12.30;9.50;;;;;;;;;;5019879;28;21103;-71
2021/12/03 09:29:05;;;;;;;12.13;9.37;;;;;;;;;;5021670;28;20437;-75
2021/12/03 09:31:33;;;;;;;10.90;9.53;;;;;;;;;;5015941;28;20179;-76
2021/12/03 09:33:58;;;;;;;15.00;10.40;;;;;;;;;;5020216;28;20472;-81
2021/12/03 09:36:23;;;;;;;10.83;9.50;;;;;;;;;;5028198;28;20466;-78
2021/12/03 09:38:49;;;;;;;14.03;10.57;;;;;;;;;;5026470;28;20176;-77
2021/12/03 09:41:16;;;;;;;18.77;10.87;;;;;;;;;;5020300;28;20180;-74
2021/12/03 09:43:43;;;;;;;20.43;11.50;;;;;;;;;;5007846;28;20525;-75
2021/12/03 09:46:16;;;;;;;22.87;12.30;;;;;;;;;;5028100;28;20472;-75
2021/12/03 09:48:58;;;;;;;15.40;12.07;;;;;;;;;;5022060;28;20430;-72
2021/12/03 09:51:26;;;;;;;17.73;12.20;;;;;;;;;;5014258;28;22143;-73
2021/12/03 09:56:35;;;;;;;14.13;11.83;;;;;;;;;;5016858;28;20416;-74
2021/12/03 10:15:22;;;;;;;20.73;13.87;;;;;;;;;;5021013;28;20461;-76
2021/12/03 10:28:52;;;;;;;24.63;16.40;;;;;;;;;;5023702;28;20483;-75
2021/12/03 10:39:16;;;;;;;21.47;15.93;;;;;;;;;;5026225;28;20435;-76
2021/12/03 10:47:09;;;;;;;29.87;17.17;;;;;;;;;;5006440;28;20467;-74
2021/12/03 10:58:11;;;;;;;48.10;22.40;;;;;;;;;;5020030;28;20445;-77
2021/12/03 11:14:48;;;;;;;29.00;16.40;;;;;;;;;;5024314;28;20463;-71
2021/12/03 12:25:35;;;;;;;18.90;8.80;;;;;;;;;;5027055;28;20560;-76
2021/12/03 12:34:35;;;;;;;14.80;7.33;;;;;;;;;;5026547;28;20458;-81
2021/12/03 12:37:07;;;;;;;19.43;6.73;;;;;;;;;;5022971;28;20434;-82
2021/12/03 12:45:28;;;;;;;16.00;6.33;;;;;;;;;;5028284;28;21068;-73
2021/12/03 13:21:13;;;;;;;13.23;5.80;;;;;;;;;;5029520;28;20582;-78
2021/12/03 13:32:46;;;;;;;8.70;4.97;;;;;;;;;;5027023;28;20540;-78
2021/12/03 13:58:25;;;;;;;6.20;3.90;;;;;;;;;;5029420;28;20441;-72
2021/12/03 14:03:13;;;;;;;12.27;4.27;;;;;;;;;;5030107;28;20418;-76
2021/12/03 14:23:36;;;;;;;7.33;3.60;;;;;;;;;;5029573;28;20469;-75
2021/12/03 14:44:23;;;;;;;6.37;4.20;;;;;;;;;;5028620;28;20454;-82
2021/12/03 14:57:36;;;;;;;9.67;4.50;;;;;;;;;;5025292;28;20477;-75
2021/12/03 15:00:09;;;;;;;7.30;4.30;;;;;;;;;;5028049;28;20442;-80
2021/12/03 15:03:01;;;;;;;6.87;4.90;;;;;;;;;;5035984;28;20813;-75
2021/12/03 15:05:46;;;;;;;12.23;4.63;;;;;;;;;;5044970;28;20450;-77
2021/12/03 15:08:16;;;;;;;14.40;4.83;;;;;;;;;;5028089;28;20430;-73
2021/12/03 15:27:14;;;;;;;8.83;5.30;;;;;;;;;;5027137;28;22211;-73
2021/12/03 15:32:36;;;;;;;8.10;4.93;;;;;;;;;;5020077;28;20512;-71
2021/12/03 15:35:20;;;;;;;6.30;4.70;;;;;;;;;;5025424;28;20732;-77
2021/12/03 15:38:16;;;;;;;11.10;4.70;;;;;;;;;;5017235;28;21071;-73
2021/12/03 16:04:32;;;;;;;15.37;6.27;;;;;;;;;;5024088;28;20541;-73
2021/12/03 16:12:50;;;;;;;14.23;5.77;;;;;;;;;;5033057;28;20434;-77
2021/12/03 16:18:08;;;;;;;11.93;6.20;;;;;;;;;;5024552;28;20438;-74
2021/12/03 16:26:41;;;;;;;15.40;5.97;;;;;;;;;;5028689;28;20947;-74
2021/12/03 16:53:27;;;;;;;7.40;6.60;;;;;;;;;;5023553;28;21101;-75
2021/12/03 16:56:17;;;;;;;8.70;7.80;;;;;;;;;;5016904;28;20583;-72
2021/12/03 16:58:41;;;;;;;9.90;7.90;;;;;;;;;;5022630;28;20477;-71
2021/12/03 17:31:14;;;;;;;10.00;9.00;;;;;;;;;;5021035;28;20531;-76
2021/12/03 17:59:56;;;;;;;12.87;11.67;;;;;;;;;;5017823;28;20446;-76
2021/12/03 18:02:36;;;;;;;11.80;10.60;;;;;;;;;;5021699;28;20853;-86
2021/12/03 18:05:19;;;;;;;12.73;11.40;;;;;;;;;;5021983;28;21037;-73
2021/12/03 18:08:00;;;;;;;13.47;12.17;;;;;;;;;;5015228;28;20450;-72
2021/12/03 18:10:52;;;;;;;15.10;13.30;;;;;;;;;;5012354;28;20434;-74
2021/12/03 18:44:01;;;;;;;14.83;13.43;;;;;;;;;;5030166;28;20892;-75
2021/12/03 18:46:51;;;;;;;14.90;13.40;;;;;;;;;;5029427;28;21005;-77
2021/12/03 18:50:08;;;;;;;16.17;14.50;;;;;;;;;;5030099;28;20441;-78
2021/12/03 18:54:57;;;;;;;15.43;14.03;;;;;;;;;;5027660;28;20485;-73
2021/12/03 18:57:27;;;;;;;15.40;14.00;;;;;;;;;;5023830;28;20449;-75
2021/12/03 18:59:57;;;;;;;17.17;15.10;;;;;;;;;;5028400;28;20983;-75
2021/12/03 19:02:24;;;;;;;17.83;16.03;;;;;;;;;;5026411;28;20445;-78
2021/12/03 19:05:03;;;;;;;18.17;16.43;;;;;;;;;;5029595;28;20569;-74
2021/12/03 19:08:01;;;;;;;16.20;14.67;;;;;;;;;;5034804;28;20431;-75
2021/12/03 19:10:19;;;;;;;17.03;15.33;;;;;;;;;;5029343;28;20535;-74
2021/12/03 19:12:49;;;;;;;17.13;15.53;;;;;;;;;;5027621;28;20527;-73
2021/12/03 19:15:14;;;;;;;18.20;16.40;;;;;;;;;;5030181;28;21135;-72
2021/12/03 19:17:42;;;;;;;17.23;15.63;;;;;;;;;;5028482;28;20902;-75
2021/12/03 19:20:11;;;;;;;18.33;16.53;;;;;;;;;;5027679;28;20221;-74
2021/12/03 19:22:37;;;;;;;18.57;16.77;;;;;;;;;;5025774;28;20446;-75
2021/12/03 19:25:02;;;;;;;18.10;16.30;;;;;;;;;;5030121;28;21094;-72
2021/12/03 19:27:27;;;;;;;19.20;17.40;;;;;;;;;;5031021;28;21707;-73
2021/12/03 19:29:58;;;;;;;18.93;17.23;;;;;;;;;;5028573;28;20215;-76
2021/12/03 19:32:26;;;;;;;19.03;17.23;;;;;;;;;;5030711;28;20173;-74
2021/12/03 19:34:52;;;;;;;20.50;17.43;;;;;;;;;;5029063;28;20479;-74
2021/12/03 19:37:18;;;;;;;19.20;17.33;;;;;;;;;;5033964;28;20441;-71
2021/12/03 19:39:43;;;;;;;19.47;17.60;;;;;;;;;;5028845;28;20473;-74
2021/12/03 19:42:18;;;;;;;20.07;18.07;;;;;;;;;;5031148;28;20180;-75
2021/12/03 19:44:53;;;;;;;20.43;18.30;;;;;;;;;;5031809;28;20256;-73
2021/12/03 19:47:28;;;;;;;18.87;17.10;;;;;;;;;;5044042;28;20525;-73
2021/12/03 19:50:16;;;;;;;21.23;19.20;;;;;;;;;;5027319;28;20457;-76
2021/12/03 19:52:48;;;;;;;20.50;18.50;;;;;;;;;;5032243;28;20434;-71
2021/12/03 19:55:13;;;;;;;19.53;17.63;;;;;;;;;;5030869;28;20475;-72
2021/12/03 19:57:38;;;;;;;20.13;18.23;;;;;;;;;;5029066;28;20821;-73
2021/12/03 20:00:05;;;;;;;18.37;16.67;;;;;;;;;;5027359;28;20207;-72
2021/12/03 20:02:33;;;;;;;19.90;17.80;;;;;;;;;;5029773;28;20180;-73
2021/12/03 20:04:59;;;;;;;21.70;19.70;;;;;;;;;;5029970;28;20568;-75
2021/12/03 20:07:24;;;;;;;20.17;18.00;;;;;;;;;;5032896;28;20507;-74
2021/12/03 20:09:58;;;;;;;19.77;17.87;;;;;;;;;;5029261;28;20262;-75
2021/12/03 20:12:24;;;;;;;22.73;18.70;;;;;;;;;;5032701;28;20176;-73
2021/12/03 20:14:50;;;;;;;21.60;19.60;;;;;;;;;;5028302;28;20469;-74
2021/12/03 20:19:45;;;;;;;19.73;17.83;;;;;;;;;;5024709;28;20180;-73
2021/12/03 20:22:19;;;;;;;20.13;18.17;;;;;;;;;;5035758;28;20183;-71
2021/12/03 20:27:17;;;;;;;21.80;19.60;;;;;;;;;;5031653;28;20438;-72
2021/12/03 20:32:33;;;;;;;22.60;20.30;;;;;;;;;;5022731;28;20434;-71
2021/12/03 20:37:45;;;;;;;23.83;21.40;;;;;;;;;;5026482;28;20467;-74
2021/12/03 20:40:18;;;;;;;24.07;21.70;;;;;;;;;;5026052;28;20441;-75
2021/12/03 21:09:18;;;;;;;26.17;23.37;;;;;;;;;;5033285;28;20428;-75
2021/12/03 21:11:50;;;;;;;24.20;21.80;;;;;;;;;;5028626;28;20437;-77
2021/12/03 21:14:18;;;;;;;26.20;23.40;;;;;;;;;;5031896;28;20456;-77
2021/12/03 21:21:49;;;;;;;28.83;25.63;;;;;;;;;;5020599;28;20447;-74
2021/12/03 21:24:15;;;;;;;25.23;22.40;;;;;;;;;;5029890;28;20612;-77
2021/12/03 21:26:41;;;;;;;25.20;22.50;;;;;;;;;;5027443;28;20435;-74
2021/12/03 21:29:18;;;;;;;26.93;23.60;;;;;;;;;;5024668;28;20466;-74
2021/12/03 21:31:55;;;;;;;26.20;22.93;;;;;;;;;;5030222;28;20431;-76
2021/12/03 21:42:14;;;;;;;26.53;22.03;;;;;;;;;;5024750;28;20436;-72
2021/12/03 21:44:39;;;;;;;27.77;22.27;;;;;;;;;;5028101;28;20279;-71
2021/12/03 21:47:05;;;;;;;24.30;21.50;;;;;;;;;;5023336;28;20290;-75
2021/12/03 21:49:30;;;;;;;25.00;20.90;;;;;;;;;;5022202;28;20668;-73
2021/12/03 21:51:56;;;;;;;25.23;21.73;;;;;;;;;;5023501;28;20184;-73
2021/12/03 21:54:21;;;;;;;22.97;20.57;;;;;;;;;;5022374;28;20215;-74
2021/12/03 21:56:47;;;;;;;25.50;20.70;;;;;;;;;;5020878;28;20647;-70
2021/12/03 21:59:14;;;;;;;25.27;22.00;;;;;;;;;;5029167;28;20172;-72
2021/12/03 22:01:40;;;;;;;23.33;20.70;;;;;;;;;;5028375;28;20520;-73
2021/12/03 22:04:05;;;;;;;25.80;22.00;;;;;;;;;;5027433;28;21763;-73
2021/12/03 22:06:32;;;;;;;26.37;23.40;;;;;;;;;;5018932;28;20195;-73
2021/12/03 22:08:57;;;;;;;23.80;20.33;;;;;;;;;;5024988;28;20245;-73
2021/12/03 22:11:26;;;;;;;26.83;22.40;;;;;;;;;;5031951;28;20869;-74
2021/12/03 22:13:51;;;;;;;26.20;21.67;;;;;;;;;;5020525;28;20208;-73
2021/12/03 22:16:17;;;;;;;25.13;22.20;;;;;;;;;;5026434;28;20552;-74
2021/12/03 22:18:43;;;;;;;26.10;23.30;;;;;;;;;;5025806;28;20202;-73
2021/12/03 22:21:08;;;;;;;24.57;21.63;;;;;;;;;;5028691;28;20187;-73
2021/12/03 22:23:36;;;;;;;26.17;21.80;;;;;;;;;;5021382;28;20461;-71
2021/12/03 22:26:02;;;;;;;25.40;21.87;;;;;;;;;;5022739;28;20187;-73
2021/12/03 22:28:27;;;;;;;23.57;20.57;;;;;;;;;;5026009;28;20422;-73
2021/12/03 22:30:53;;;;;;;24.20;21.53;;;;;;;;;;5025611;28;20179;-73
2021/12/03 22:33:21;;;;;;;25.87;22.07;;;;;;;;;;5025958;28;20227;-73
2021/12/03 22:35:46;;;;;;;23.77;19.57;;;;;;;;;;5034398;28;20220;-72
2021/12/03 22:38:11;;;;;;;25.93;22.20;;;;;;;;;;5034767;28;20481;-74
2021/12/03 22:40:38;;;;;;;23.23;20.73;;;;;;;;;;5025477;28;20666;-73
2021/12/03 22:43:04;;;;;;;24.67;21.97;;;;;;;;;;5032299;28;20703;-73
2021/12/03 22:45:43;;;;;;;24.10;21.40;;;;;;;;;;5033205;28;20537;-74